Time;durP1;ratioP1;P1;durP2;ratioP2;P2;SDS_P1;SDS_P2;PMS_P1;PMS_P2;Temp;Humidity;BMP_temperature;BMP_pressure;BME280_temperature;BME280_humidity;BME280_pressure;Samples;Min_cycle;Max_cycle;Signal;HPM_P1;HPM_P2
2022/04/15 00:01:39;;;;;;;35.23;29.07;;;10.90;99.90;;;;;;5075029;28;20205;-74
2022/04/15 00:04:06;;;;;;;31.93;27.40;;;10.90;99.90;;;;;;5075206;28;20197;-74
2022/04/15 00:06:33;;;;;;;35.57;28.20;;;10.80;99.90;;;;;;5075257;28;20274;-74
2022/04/15 00:09:00;;;;;;;36.37;28.13;;;10.70;99.90;;;;;;5075245;28;20193;-74
2022/04/15 00:11:29;;;;;;;38.03;29.63;;;10.70;99.90;;;;;;5075177;28;20197;-74
2022/04/15 00:13:56;;;;;;;38.43;29.53;;;10.70;99.90;;;;;;5075078;28;20236;-75
2022/04/15 00:16:22;;;;;;;40.83;29.77;;;10.60;99.90;;;;;;5075004;28;20541;-74
2022/04/15 00:18:49;;;;;;;37.87;30.83;;;10.60;99.90;;;;;;5074748;28;20278;-74
2022/04/15 00:21:16;;;;;;;41.43;31.73;;;10.60;99.90;;;;;;5074761;28;20631;-74
2022/04/15 00:23:43;;;;;;;46.40;30.33;;;10.50;99.90;;;;;;5074874;28;20664;-74
2022/04/15 00:26:09;;;;;;;38.87;31.67;;;10.50;99.90;;;;;;5074335;28;20596;-75
2022/04/15 00:28:37;;;;;;;42.03;32.60;;;10.50;99.90;;;;;;5074700;28;20710;-74
2022/04/15 00:31:04;;;;;;;43.00;31.83;;;10.50;99.90;;;;;;5074685;28;20254;-74
2022/04/15 00:33:31;;;;;;;44.13;32.37;;;10.60;99.90;;;;;;5074574;28;20750;-74
2022/04/15 00:35:57;;;;;;;43.63;33.70;;;10.60;99.90;;;;;;5074713;28;20234;-74
2022/04/15 00:38:24;;;;;;;42.70;34.73;;;10.50;99.90;;;;;;5074662;28;20266;-74
2022/04/15 00:40:50;;;;;;;45.73;33.87;;;10.60;99.90;;;;;;5074481;28;20254;-74
2022/04/15 00:43:17;;;;;;;48.83;34.73;;;10.70;99.90;;;;;;5074409;28;20561;-74
2022/04/15 00:45:45;;;;;;;45.73;32.53;;;10.70;99.90;;;;;;5074338;28;20217;-74
2022/04/15 00:48:14;;;;;;;46.93;34.17;;;10.70;99.90;;;;;;5074436;28;20197;-74
2022/04/15 00:50:41;;;;;;;47.33;34.03;;;10.70;99.90;;;;;;5074539;28;20537;-74
2022/04/15 00:53:10;;;;;;;46.93;34.60;;;10.60;99.90;;;;;;5074264;28;20213;-74
2022/04/15 00:55:40;;;;;;;47.67;35.83;;;10.50;99.90;;;;;;5074232;28;20200;-74
2022/04/15 00:58:07;;;;;;;51.30;35.10;;;10.50;99.90;;;;;;5073859;28;20526;-74
2022/04/15 01:00:36;;;;;;;49.87;36.20;;;10.50;99.90;;;;;;5074275;28;20273;-74
2022/04/15 01:03:06;;;;;;;55.43;37.13;;;10.40;99.90;;;;;;5074253;28;20250;-74
2022/04/15 01:05:33;;;;;;;50.10;36.73;;;10.30;99.90;;;;;;5074093;28;20201;-74
2022/04/15 01:08:03;;;;;;;54.17;37.73;;;10.20;99.90;;;;;;5074112;28;20196;-74
2022/04/15 01:10:30;;;;;;;51.70;36.80;;;10.30;99.90;;;;;;5073996;28;20197;-74
2022/04/15 01:12:58;;;;;;;49.20;35.47;;;10.40;99.90;;;;;;5073933;28;20201;-74
2022/04/15 01:15:26;;;;;;;50.60;36.67;;;10.30;99.90;;;;;;5073844;28;20193;-74
2022/04/15 01:17:53;;;;;;;50.00;36.53;;;10.30;99.90;;;;;;5073899;28;20595;-74
2022/04/15 01:20:22;;;;;;;52.63;36.70;;;10.30;99.90;;;;;;5073943;28;20250;-74
2022/04/15 01:22:53;;;;;;;50.10;36.93;;;10.10;99.90;;;;;;5073570;28;20228;-74
2022/04/15 01:25:21;;;;;;;46.00;35.07;;;10.10;99.90;;;;;;5073684;28;20664;-74
2022/04/15 01:27:49;;;;;;;51.60;35.67;;;10.10;99.90;;;;;;5073773;28;20228;-74
2022/04/15 01:30:17;;;;;;;47.40;35.57;;;9.90;99.90;;;;;;5073758;28;20258;-76
2022/04/15 01:32:45;;;;;;;52.23;36.60;;;9.80;99.90;;;;;;5073560;28;20204;-74
2022/04/15 01:35:13;;;;;;;52.87;38.17;;;9.80;99.90;;;;;;5073319;28;20197;-74
2022/04/15 01:37:40;;;;;;;54.20;37.33;;;9.80;99.90;;;;;;5073403;28;20720;-74
2022/04/15 01:40:09;;;;;;;56.37;37.67;;;9.70;99.90;;;;;;5073435;28;20205;-74
2022/04/15 01:42:39;;;;;;;56.37;39.27;;;9.50;99.90;;;;;;5073477;28;20193;-74
2022/04/15 01:45:07;;;;;;;58.13;39.23;;;9.50;99.90;;;;;;5073477;28;20246;-74
2022/04/15 01:47:33;;;;;;;60.10;40.13;;;9.40;99.90;;;;;;5073305;28;20240;-75
2022/04/15 01:50:00;;;;;;;59.77;42.10;;;9.40;99.90;;;;;;5073296;28;20193;-74
2022/04/15 01:52:27;;;;;;;60.80;40.60;;;9.30;99.90;;;;;;5072705;28;20657;-74
2022/04/15 01:54:54;;;;;;;62.23;40.47;;;9.30;99.90;;;;;;5073408;28;20201;-74
2022/04/15 01:57:20;;;;;;;64.50;42.33;;;9.30;99.90;;;;;;5073413;28;20322;-74
2022/04/15 01:59:48;;;;;;;62.73;42.57;;;9.30;99.90;;;;;;5073166;28;20196;-74
2022/04/15 02:02:15;;;;;;;62.97;42.57;;;9.30;99.90;;;;;;5073099;28;20644;-74
2022/04/15 02:04:42;;;;;;;65.57;41.57;;;9.20;99.90;;;;;;5073005;28;20201;-74
2022/04/15 02:07:09;;;;;;;66.83;42.10;;;9.10;99.90;;;;;;5072889;28;20236;-74
2022/04/15 02:09:35;;;;;;;65.73;42.53;;;9.10;99.90;;;;;;5073245;28;20201;-74
2022/04/15 02:12:02;;;;;;;61.07;40.37;;;9.00;99.90;;;;;;5073000;28;20718;-74
2022/04/15 02:14:29;;;;;;;63.10;39.73;;;9.00;99.90;;;;;;5073081;28;20227;-74
2022/04/15 02:16:58;;;;;;;66.60;41.47;;;8.90;99.90;;;;;;5072993;28;20247;-74
2022/04/15 02:19:25;;;;;;;63.83;40.33;;;8.80;99.90;;;;;;5072922;28;20208;-74
2022/04/15 02:21:52;;;;;;;66.63;40.53;;;8.60;99.90;;;;;;5072860;28;20233;-74
2022/04/15 02:24:18;;;;;;;65.70;41.97;;;8.50;99.90;;;;;;5073018;28;20197;-74
2022/04/15 02:26:45;;;;;;;60.50;41.30;;;8.40;99.90;;;;;;5072923;28;20243;-74
2022/04/15 02:29:12;;;;;;;67.43;42.83;;;8.50;99.90;;;;;;5072822;28;20196;-74
2022/04/15 02:31:38;;;;;;;66.63;41.20;;;8.50;99.90;;;;;;5072853;28;20593;-74
2022/04/15 02:34:06;;;;;;;66.97;41.67;;;8.60;99.90;;;;;;5072766;28;20193;-74
2022/04/15 02:36:33;;;;;;;67.47;41.73;;;8.50;99.90;;;;;;5073020;28;20282;-74
2022/04/15 02:38:59;;;;;;;63.03;42.10;;;8.50;99.90;;;;;;5072942;28;20201;-74
2022/04/15 02:41:27;;;;;;;65.13;41.10;;;8.50;99.90;;;;;;5072879;28;20231;-74
2022/04/15 02:43:54;;;;;;;63.90;40.60;;;8.50;99.90;;;;;;5072837;28;20193;-74
2022/04/15 02:46:21;;;;;;;72.00;42.90;;;8.50;99.90;;;;;;5072606;28;20197;-74
2022/04/15 02:48:48;;;;;;;66.57;42.07;;;8.50;99.90;;;;;;5072543;28;20201;-74
2022/04/15 02:51:17;;;;;;;63.80;41.17;;;8.40;99.90;;;;;;5072702;28;20243;-73
2022/04/15 02:53:44;;;;;;;63.43;40.03;;;8.40;99.90;;;;;;5072461;28;20192;-74
2022/04/15 02:56:10;;;;;;;69.50;41.43;;;8.30;99.90;;;;;;5072475;28;20331;-74
2022/04/15 02:58:37;;;;;;;69.63;40.50;;;8.20;99.90;;;;;;5072455;28;20245;-74
2022/04/15 03:01:03;;;;;;;64.87;41.17;;;8.10;99.90;;;;;;5072305;28;20201;-74
2022/04/15 03:03:30;;;;;;;68.13;41.13;;;8.00;99.90;;;;;;5072537;28;20267;-74
2022/04/15 03:05:57;;;;;;;73.13;40.73;;;8.00;99.90;;;;;;5075920;28;20262;-74
2022/04/15 03:08:25;;;;;;;69.40;41.03;;;8.00;99.90;;;;;;5076184;28;20580;-73
2022/04/15 03:10:51;;;;;;;69.17;42.10;;;8.10;99.90;;;;;;5075944;28;20602;-74
2022/04/15 03:13:18;;;;;;;75.47;42.00;;;7.90;99.90;;;;;;5076015;28;20714;-74
2022/04/15 03:15:45;;;;;;;75.13;42.90;;;7.80;99.90;;;;;;5075886;28;20254;-74
2022/04/15 03:18:11;;;;;;;84.20;44.27;;;7.80;99.90;;;;;;5076159;28;20627;-74
2022/04/15 03:20:38;;;;;;;77.47;42.80;;;7.80;99.90;;;;;;5075981;28;20201;-74
2022/04/15 03:23:05;;;;;;;76.33;43.97;;;7.70;99.90;;;;;;5075703;28;20565;-74
2022/04/15 03:25:33;;;;;;;82.37;43.17;;;7.60;99.90;;;;;;5075965;28;20197;-74
2022/04/15 03:28:00;;;;;;;77.83;42.67;;;7.50;99.90;;;;;;5075711;28;20274;-74
2022/04/15 03:30:27;;;;;;;72.17;41.80;;;7.50;99.90;;;;;;5075698;28;20241;-74
2022/04/15 03:32:54;;;;;;;73.77;42.23;;;7.60;99.90;;;;;;5075610;28;20649;-74
2022/04/15 03:35:21;;;;;;;69.03;40.93;;;7.80;99.90;;;;;;5075759;28;20201;-74
2022/04/15 03:37:48;;;;;;;76.20;42.37;;;7.80;99.90;;;;;;5075525;28;20204;-74
2022/04/15 03:40:15;;;;;;;71.63;41.27;;;7.60;99.90;;;;;;5075614;28;20243;-73
2022/04/15 03:42:49;;;;;;;71.70;40.33;;;7.60;99.90;;;;;;5075420;28;20212;-73
2022/04/15 03:45:18;;;;;;;66.93;40.30;;;7.60;99.90;;;;;;5075524;28;20525;-73
2022/04/15 03:47:46;;;;;;;64.77;40.67;;;7.50;99.90;;;;;;5075514;28;20226;-73
2022/04/15 03:50:13;;;;;;;70.70;40.03;;;7.50;99.90;;;;;;5075580;28;20326;-73
2022/04/15 03:52:44;;;;;;;74.50;41.37;;;7.30;99.90;;;;;;5075258;28;20268;-73
2022/04/15 03:55:12;;;;;;;88.37;41.40;;;7.20;99.90;;;;;;5075121;28;20201;-73
2022/04/15 03:57:39;;;;;;;95.23;43.17;;;7.20;99.90;;;;;;5075410;28;20198;-73
2022/04/15 04:00:10;;;;;;;116.73;42.87;;;7.20;99.90;;;;;;5075210;28;20197;-73
2022/04/15 04:02:37;;;;;;;175.23;44.70;;;7.10;99.90;;;;;;5075307;28;20193;-73
2022/04/15 04:05:05;;;;;;;218.77;44.40;;;7.00;99.90;;;;;;5075112;28;20602;-73
2022/04/15 04:07:31;;;;;;;228.53;46.60;;;6.90;99.90;;;;;;5074991;28;20220;-73
2022/04/15 04:09:58;;;;;;;183.27;43.87;;;6.90;99.90;;;;;;5074926;28;20197;-72
2022/04/15 04:12:24;;;;;;;162.30;40.57;;;6.80;99.90;;;;;;5075136;28;20230;-73
2022/04/15 04:14:51;;;;;;;131.23;43.63;;;7.00;99.90;;;;;;5074518;28;20726;-73
2022/04/15 04:17:19;;;;;;;143.73;41.03;;;7.00;99.90;;;;;;5074927;28;20246;-72
2022/04/15 04:19:46;;;;;;;123.33;40.93;;;6.90;99.90;;;;;;5074942;28;20197;-73
2022/04/15 04:22:13;;;;;;;92.07;40.60;;;6.80;99.90;;;;;;5074397;28;20584;-72
2022/04/15 04:24:40;;;;;;;142.13;43.07;;;6.80;99.90;;;;;;5074984;28;20193;-73
2022/04/15 04:27:06;;;;;;;112.93;43.10;;;6.80;99.90;;;;;;5074726;28;20243;-73
2022/04/15 04:29:33;;;;;;;76.90;39.07;;;6.90;99.90;;;;;;5074867;28;20205;-73
2022/04/15 04:32:00;;;;;;;79.70;41.50;;;6.90;99.90;;;;;;5074542;28;20200;-73
2022/04/15 04:34:28;;;;;;;80.73;41.40;;;6.90;99.90;;;;;;5074422;28;20219;-73
2022/04/15 04:36:54;;;;;;;73.30;39.20;;;6.90;99.90;;;;;;5074362;28;20197;-73
2022/04/15 04:39:25;;;;;;;70.50;39.10;;;6.90;99.90;;;;;;5074445;28;20193;-73
2022/04/15 04:41:53;;;;;;;71.37;37.87;;;6.90;99.90;;;;;;5074547;28;20205;-73
2022/04/15 04:44:19;;;;;;;58.80;34.73;;;6.90;99.90;;;;;;5074508;28;20338;-73
2022/04/15 04:46:46;;;;;;;58.33;33.83;;;6.80;99.90;;;;;;5074295;28;20197;-73
2022/04/15 04:49:13;;;;;;;55.73;34.00;;;6.90;99.90;;;;;;5074297;28;20197;-73
2022/04/15 04:51:41;;;;;;;58.67;34.13;;;6.90;99.90;;;;;;5074087;28;20254;-73
2022/04/15 04:54:08;;;;;;;56.20;33.40;;;6.90;99.90;;;;;;5074264;28;20203;-73
2022/04/15 04:56:34;;;;;;;53.93;32.73;;;7.10;99.90;;;;;;5074192;28;20201;-73
2022/04/15 04:59:01;;;;;;;59.50;33.50;;;7.10;99.90;;;;;;5073950;28;20624;-73
2022/04/15 05:01:27;;;;;;;58.77;34.20;;;7.10;99.90;;;;;;5074064;28;20243;-73
2022/04/15 05:03:54;;;;;;;61.20;32.77;;;7.10;99.90;;;;;;5073926;28;20254;-73
2022/04/15 05:06:21;;;;;;;53.47;32.00;;;7.00;99.90;;;;;;5073820;28;20258;-73
2022/04/15 05:08:50;;;;;;;54.63;31.80;;;7.10;99.90;;;;;;5074382;28;20225;-73
2022/04/15 05:11:16;;;;;;;55.20;32.93;;;7.10;99.90;;;;;;5073941;28;20197;-74
2022/04/15 05:13:43;;;;;;;54.20;32.63;;;7.10;99.90;;;;;;5073809;28;20247;-73
2022/04/15 05:16:10;;;;;;;64.70;37.57;;;7.00;99.90;;;;;;5073867;28;20201;-74
2022/04/15 05:18:36;;;;;;;58.20;35.33;;;7.10;99.90;;;;;;5073748;28;20676;-75
2022/04/15 05:21:03;;;;;;;57.27;35.80;;;7.10;99.90;;;;;;5073764;28;20251;-72
2022/04/15 05:23:30;;;;;;;63.93;34.70;;;7.10;99.90;;;;;;5073915;28;20200;-72
2022/04/15 05:25:58;;;;;;;65.07;33.10;;;7.20;99.90;;;;;;5073758;28;20205;-71
2022/04/15 05:28:24;;;;;;;46.27;30.33;;;7.30;99.90;;;;;;5073001;28;20221;-72
2022/04/15 05:30:51;;;;;;;51.70;31.60;;;7.50;99.90;;;;;;5073701;28;20246;-73
2022/04/15 05:33:18;;;;;;;51.40;32.90;;;7.50;99.90;;;;;;5073494;28;20599;-72
2022/04/15 05:35:44;;;;;;;45.77;30.33;;;7.60;99.90;;;;;;5073603;28;20258;-71
2022/04/15 05:38:11;;;;;;;45.93;30.40;;;7.70;99.90;;;;;;5073487;28;20268;-72
2022/04/15 05:40:38;;;;;;;45.63;28.90;;;7.70;99.90;;;;;;5073497;28;20199;-72
2022/04/15 05:43:06;;;;;;;39.03;27.37;;;7.70;99.90;;;;;;5073376;28;20595;-73
2022/04/15 05:45:33;;;;;;;43.23;27.73;;;7.80;99.90;;;;;;5073835;28;20193;-72
2022/04/15 05:48:00;;;;;;;38.20;26.30;;;8.00;99.90;;;;;;5073062;28;20227;-72
2022/04/15 05:50:26;;;;;;;40.53;27.13;;;8.10;99.90;;;;;;5073457;28;20254;-73
2022/04/15 05:52:53;;;;;;;38.17;26.23;;;8.20;99.90;;;;;;5072438;28;20656;-73
2022/04/15 05:55:19;;;;;;;33.57;24.83;;;8.30;99.90;;;;;;5072731;28;20239;-73
2022/04/15 05:57:46;;;;;;;32.53;24.47;;;8.40;99.90;;;;;;5073051;28;20197;-74
2022/04/15 06:00:15;;;;;;;35.10;24.20;;;8.60;99.90;;;;;;5072962;28;20197;-74
2022/04/15 06:02:41;;;;;;;30.90;24.10;;;8.90;99.90;;;;;;5072777;28;20227;-74
2022/04/15 06:05:09;;;;;;;28.47;21.87;;;9.10;99.90;;;;;;5073116;28;20250;-73
2022/04/15 06:07:36;;;;;;;30.33;23.27;;;9.40;99.90;;;;;;5072836;28;20216;-74
2022/04/15 06:10:03;;;;;;;26.33;21.03;;;9.60;99.90;;;;;;5073013;28;20193;-74
2022/04/15 06:12:54;;;;;;;26.63;19.40;;;9.70;99.90;;;;;;5072766;28;20250;-74
2022/04/15 06:15:24;;;;;;;24.83;19.43;;;9.70;99.90;;;;;;5073034;28;20193;-73
2022/04/15 06:17:51;;;;;;;23.77;19.70;;;9.80;99.90;;;;;;5073410;28;20207;-75
2022/04/15 06:20:18;;;;;;;21.30;19.00;;;9.70;99.90;;;;;;5072954;28;20201;-73
2022/04/15 06:22:45;;;;;;;24.07;18.87;;;9.70;99.90;;;;;;5072637;28;20228;-73
2022/04/15 06:25:12;;;;;;;22.27;17.43;;;9.60;99.90;;;;;;5072602;28;20197;-74
2022/04/15 06:27:39;;;;;;;21.27;18.40;;;9.70;99.90;;;;;;5072587;28;20216;-74
2022/04/15 06:30:08;;;;;;;29.57;18.73;;;9.70;99.90;;;;;;5072842;28;20201;-74
2022/04/15 06:32:36;;;;;;;23.97;19.97;;;9.80;99.90;;;;;;5072606;28;20648;-74
2022/04/15 06:35:03;;;;;;;24.03;17.90;;;10.00;99.90;;;;;;5072865;28;20254;-74
2022/04/15 06:37:30;;;;;;;19.73;17.10;;;10.00;99.90;;;;;;5072757;28;20197;-74
2022/04/15 06:39:57;;;;;;;20.07;17.77;;;10.10;99.90;;;;;;5076407;28;20238;-74
2022/04/15 06:42:24;;;;;;;20.97;17.33;;;10.10;99.90;;;;;;5077042;28;20196;-74
2022/04/15 06:44:51;;;;;;;20.07;17.03;;;10.10;99.90;;;;;;5076848;28;20342;-74
2022/04/15 06:47:17;;;;;;;20.70;15.93;;;10.20;99.90;;;;;;5076881;28;20201;-73
2022/04/15 06:49:47;;;;;;;18.50;15.67;;;10.40;99.90;;;;;;5076631;28;20290;-74
2022/04/15 06:52:14;;;;;;;18.60;16.27;;;10.40;99.90;;;;;;5076493;28;20292;-73
2022/04/15 06:54:41;;;;;;;19.03;16.03;;;10.60;99.90;;;;;;5076904;28;20222;-74
2022/04/15 06:57:09;;;;;;;20.47;16.03;;;10.70;99.90;;;;;;5076677;28;20197;-73
2022/04/15 06:59:36;;;;;;;16.40;14.70;;;11.10;99.90;;;;;;5076566;28;20292;-74
2022/04/15 07:02:03;;;;;;;17.17;15.00;;;11.30;99.90;;;;;;5076454;28;20645;-74
2022/04/15 07:04:30;;;;;;;15.60;13.97;;;11.50;99.90;;;;;;5076352;28;20201;-75
2022/04/15 07:06:58;;;;;;;17.47;14.27;;;11.70;99.90;;;;;;5076389;28;20607;-74
2022/04/15 07:09:25;;;;;;;14.87;13.27;;;12.10;99.90;;;;;;5076506;28;20221;-75
2022/04/15 07:11:52;;;;;;;19.07;12.93;;;12.10;99.90;;;;;;5076491;28;20235;-74
2022/04/15 07:14:18;;;;;;;14.47;12.70;;;12.20;99.90;;;;;;5076331;28;20309;-74
2022/04/15 07:16:45;;;;;;;13.57;12.07;;;12.30;99.90;;;;;;5076201;28;20231;-74
2022/04/15 07:19:12;;;;;;;17.40;13.07;;;12.40;99.90;;;;;;5076114;28;20196;-74
2022/04/15 07:21:39;;;;;;;12.87;11.63;;;12.50;99.90;;;;;;5075704;28;20278;-74
2022/04/15 07:24:08;;;;;;;13.03;11.73;;;12.60;99.90;;;;;;5076094;28;20205;-74
2022/04/15 07:26:35;;;;;;;14.23;11.73;;;12.70;99.90;;;;;;5076098;28;20193;-74
2022/04/15 07:29:02;;;;;;;14.40;12.23;;;12.60;99.90;;;;;;5075854;28;20267;-74
2022/04/15 07:31:29;;;;;;;13.07;11.70;;;12.70;99.90;;;;;;5075954;28;20197;-75
2022/04/15 07:33:55;;;;;;;13.30;11.90;;;12.50;99.90;;;;;;5075770;28;20196;-74
2022/04/15 07:39:09;;;;;;;14.40;12.20;;;12.70;99.90;;;;;;5075836;28;20714;-75
2022/04/15 07:41:36;;;;;;;16.63;12.00;;;12.80;99.90;;;;;;5076166;28;20200;-74
2022/04/15 07:44:03;;;;;;;15.60;11.60;;;13.10;99.90;;;;;;5075740;28;20196;-75
2022/04/15 07:46:30;;;;;;;19.00;13.67;;;13.30;99.90;;;;;;5075505;28;20199;-74
2022/04/15 07:48:57;;;;;;;14.63;11.10;;;13.50;99.90;;;;;;5075733;28;20290;-73
2022/04/15 07:51:24;;;;;;;12.47;10.57;;;13.70;99.90;;;;;;5074967;28;20204;-74
2022/04/15 07:53:50;;;;;;;12.90;10.03;;;13.90;99.90;;;;;;5075619;28;20198;-73
2022/04/15 07:56:18;;;;;;;12.27;9.40;;;14.00;99.90;;;;;;5075403;28;20602;-75
2022/04/15 07:58:45;;;;;;;11.97;8.97;;;14.30;99.90;;;;;;5075367;28;20223;-75
2022/04/15 08:01:12;;;;;;;12.90;8.73;;;14.50;99.90;;;;;;5075236;28;20719;-75
2022/04/15 08:03:39;;;;;;;9.60;8.60;;;14.50;99.90;;;;;;5075479;28;20197;-74
2022/04/15 08:06:06;;;;;;;10.07;8.03;;;14.60;99.90;;;;;;5075436;28;20285;-75
2022/04/15 08:08:33;;;;;;;9.47;8.47;;;15.10;99.90;;;;;;5075225;28;20243;-74
2022/04/15 08:11:00;;;;;;;9.50;8.60;;;15.50;99.90;;;;;;5075189;28;20251;-74
2022/04/15 08:13:28;;;;;;;9.67;8.67;;;15.50;99.90;;;;;;5075038;28;20205;-74
2022/04/15 08:15:55;;;;;;;10.20;9.20;;;15.50;99.90;;;;;;5075321;28;20322;-74
2022/04/15 08:18:21;;;;;;;9.80;8.80;;;15.30;99.90;;;;;;5075273;28;20255;-74
2022/04/15 08:20:50;;;;;;;11.37;9.27;;;15.50;99.90;;;;;;5075106;28;20276;-75
2022/04/15 08:23:17;;;;;;;11.45;10.27;;;15.90;99.90;;;;;;5074709;28;20235;-74
2022/04/15 08:25:44;;;;;;;12.93;11.38;;;16.00;99.90;;;;;;5074909;28;20250;-75
2022/04/15 08:28:12;;;;;;;13.80;11.57;;;16.00;99.90;;;;;;5074595;28;20197;-74
2022/04/15 08:30:40;;;;;;;20.08;13.85;;;16.40;99.90;;;;;;5075099;28;20250;-75
2022/04/15 08:33:08;;;;;;;15.52;12.40;;;16.30;99.90;;;;;;5074823;28;20194;-75
2022/04/15 08:35:35;;;;;;;13.68;12.27;;;16.70;99.90;;;;;;5074874;28;20193;-75
2022/04/15 08:38:02;;;;;;;13.90;12.43;;;17.20;99.90;;;;;;5074698;28;20606;-75
2022/04/15 08:40:31;;;;;;;13.18;11.85;;;17.40;99.90;;;;;;5074623;28;20197;-75
2022/04/15 08:42:58;;;;;;;14.75;13.25;;;17.30;99.90;;;;;;5074576;28;20606;-74
2022/04/15 08:45:26;;;;;;;14.50;13.07;;;17.10;99.90;;;;;;5074685;28;20200;-73
2022/04/15 08:47:57;;;;;;;14.52;13.05;;;16.90;99.90;;;;;;5074639;28;20254;-74
2022/04/15 08:50:25;;;;;;;14.38;12.77;;;16.50;99.90;;;;;;5074540;28;20225;-74
2022/04/15 08:52:53;;;;;;;16.05;13.10;;;15.90;99.90;;;;;;5074696;28;20194;-74
2022/04/15 08:55:21;;;;;;;14.82;13.23;;;16.00;99.90;;;;;;5074129;28;20193;-74
2022/04/15 08:57:47;;;;;;;13.88;12.48;;;16.10;99.90;;;;;;5074270;28;20587;-74
2022/04/15 09:00:15;;;;;;;14.57;12.00;;;16.30;99.90;;;;;;5074145;28;20258;-74
2022/04/15 09:02:42;;;;;;;14.35;12.95;;;16.80;99.90;;;;;;5073036;28;20203;-74
2022/04/15 09:05:11;;;;;;;14.30;12.65;;;17.20;99.90;;;;;;5074039;28;20565;-74
2022/04/15 09:07:38;;;;;;;14.30;12.80;;;17.30;99.90;;;;;;5073752;28;20250;-73
2022/04/15 09:10:07;;;;;;;14.38;12.88;;;17.50;99.90;;;;;;5073739;28;20751;-73
2022/04/15 09:12:35;;;;;;;13.70;12.30;;;16.90;99.90;;;;;;5074117;28;20203;-73
2022/04/15 09:15:12;;;;;;;14.55;12.77;;;16.50;99.90;;;;;;5074100;28;20215;-73
2022/04/15 09:17:41;;;;;;;14.30;12.95;;;16.50;99.90;;;;;;5074034;28;20210;-73
2022/04/15 09:20:11;;;;;;;14.90;11.98;;;16.60;99.90;;;;;;5073767;28;20193;-74
2022/04/15 09:22:38;;;;;;;17.73;15.52;;;17.40;99.90;;;;;;5073624;28;20725;-74
2022/04/15 09:25:06;;;;;;;18.15;16.35;;;17.60;99.90;;;;;;5073902;28;20227;-73
2022/04/15 09:27:35;;;;;;;19.75;17.38;;;18.10;99.90;;;;;;5073753;28;20277;-76
2022/04/15 09:30:01;;;;;;;17.23;14.55;;;18.30;99.90;;;;;;5073364;28;20303;-74
2022/04/15 09:32:30;;;;;;;17.80;15.90;;;18.40;99.90;;;;;;5073286;28;20679;-73
2022/04/15 09:34:58;;;;;;;17.85;15.45;;;18.20;99.90;;;;;;5073290;28;20204;-73
2022/04/15 09:37:29;;;;;;;16.48;14.77;;;18.10;99.90;;;;;;5073461;28;20251;-73
2022/04/15 09:40:09;;;;;;;16.70;14.95;;;17.90;99.90;;;;;;5073211;28;20197;-74
2022/04/15 09:42:36;;;;;;;13.82;12.45;;;18.20;99.90;;;;;;5073369;28;20537;-74
2022/04/15 09:45:14;;;;;;;14.70;13.18;;;19.00;99.90;;;;;;5073158;28;20201;-74
2022/04/15 09:47:42;;;;;;;14.05;12.57;;;19.50;99.90;;;;;;5073373;28;20284;-74
2022/04/15 09:50:20;;;;;;;14.05;12.60;;;19.20;99.90;;;;;;5073013;28;20778;-75
2022/04/15 09:52:48;;;;;;;14.43;12.93;;;19.20;99.90;;;;;;5073191;28;20270;-76
2022/04/15 09:55:19;;;;;;;15.00;13.40;;;19.60;98.00;;;;;;5073277;28;20252;-75
2022/04/15 09:57:47;;;;;;;14.60;13.00;;;19.50;97.30;;;;;;5073007;28;20201;-76
2022/04/15 10:00:15;;;;;;;14.25;12.80;;;20.00;94.10;;;;;;5073303;28;20205;-75
2022/04/15 10:02:44;;;;;;;13.50;12.20;;;19.80;93.70;;;;;;5072969;28;20652;-75
2022/04/15 10:05:13;;;;;;;13.77;12.18;;;20.10;90.60;;;;;;5073100;28;20288;-75
2022/04/15 10:07:42;;;;;;;15.20;13.70;;;19.80;88.80;;;;;;5073069;28;20295;-75
2022/04/15 10:10:11;;;;;;;13.48;12.07;;;18.70;82.70;;;;;;5072864;28;20814;-74
2022/04/15 10:12:40;;;;;;;12.88;11.55;;;19.30;83.80;;;;;;5072992;28;20235;-74
2022/04/15 10:15:09;;;;;;;11.88;10.50;;;19.60;80.60;;;;;;5073008;28;20223;-74
2022/04/15 10:17:37;;;;;;;13.65;12.23;;;20.10;79.20;;;;;;5073099;28;20201;-75
2022/04/15 10:20:04;;;;;;;15.65;13.85;;;20.10;79.40;;;;;;5072931;28;20201;-76
2022/04/15 10:22:32;;;;;;;12.35;11.15;;;20.30;77.10;;;;;;5073274;28;20224;-75
2022/04/15 10:25:00;;;;;;;12.57;11.50;;;20.60;73.50;;;;;;5072864;28;20199;-77
2022/04/15 10:27:30;;;;;;;11.90;10.65;;;20.50;68.80;;;;;;5073713;28;20197;-75
2022/04/15 10:30:02;;;;;;;15.15;13.63;;;21.40;68.60;;;;;;5073456;28;20274;-76
2022/04/15 10:32:28;;;;;;;11.50;10.43;;;21.90;60.50;;;;;;5074340;28;20193;-76
2022/04/15 10:34:55;;;;;;;13.85;12.45;;;21.90;57.40;;;;;;5073981;28;20653;-76
2022/04/15 10:37:46;;;;;;;13.65;12.35;;;21.20;57.80;;;;;;5073466;28;20629;-76
2022/04/15 10:40:22;;;;;;;13.38;12.07;;;20.20;59.20;;;;;;5073284;28;20618;-76
2022/04/15 10:42:50;;;;;;;12.80;11.60;;;20.60;58.40;;;;;;5072875;28;20201;-76
2022/04/15 10:45:26;;;;;;;13.15;11.90;;;21.20;57.40;;;;;;5072586;28;20560;-76
2022/04/15 10:47:58;;;;;;;13.48;12.27;;;20.80;54.80;;;;;;5072444;28;20197;-75
2022/04/15 10:50:27;;;;;;;14.13;12.93;;;20.50;53.20;;;;;;5072117;28;20260;-75
2022/04/15 10:53:14;;;;;;;14.15;12.65;;;20.80;55.50;;;;;;5072570;28;20197;-75
2022/04/15 10:55:43;;;;;;;14.23;12.85;;;21.40;53.30;;;;;;5072651;28;20197;-76
2022/04/15 10:58:13;;;;;;;14.07;12.68;;;22.00;51.10;;;;;;5072392;28;20326;-75
2022/04/15 11:03:26;;;;;;;12.57;11.27;;;23.50;45.80;;;;;;5072345;28;20327;-76
2022/04/15 11:05:55;;;;;;;13.15;11.98;;;21.50;45.80;;;;;;5072455;28;20242;-76
2022/04/15 11:08:24;;;;;;;13.38;11.88;;;21.20;48.30;;;;;;5072191;28;20197;-76
2022/04/15 11:11:04;;;;;;;14.30;13.00;;;20.10;50.10;;;;;;5072186;28;20221;-76
2022/04/15 11:14:00;;;;;;;13.52;12.30;;;19.60;51.70;;;;;;5072239;28;20197;-76
2022/04/15 11:16:41;;;;;;;13.13;11.95;;;19.70;53.30;;;;;;5072352;28;20288;-75
2022/04/15 11:19:08;;;;;;;15.18;12.82;;;20.90;51.60;;;;;;5072230;28;20207;-75
2022/04/15 11:21:37;;;;;;;13.43;12.13;;;20.50;51.20;;;;;;5072021;28;20643;-75
2022/04/15 11:24:05;;;;;;;13.75;12.48;;;20.20;51.40;;;;;;5072096;28;20565;-75
2022/04/15 11:26:34;;;;;;;13.60;12.40;;;19.40;52.70;;;;;;5074818;28;20250;-75
2022/04/15 11:29:03;;;;;;;14.95;12.68;;;19.10;53.70;;;;;;5075727;28;20203;-75
2022/04/15 11:31:31;;;;;;;13.43;10.93;;;19.50;53.90;;;;;;5075857;28;20247;-75
2022/04/15 11:34:05;;;;;;;13.05;11.85;;;19.50;51.30;;;;;;5075955;28;20197;-75
2022/04/15 11:36:32;;;;;;;12.43;11.15;;;19.40;53.30;;;;;;5076014;28;20197;-75
2022/04/15 11:39:01;;;;;;;12.82;11.52;;;20.20;53.70;;;;;;5075802;28;20197;-75
2022/04/15 11:41:28;;;;;;;11.35;10.30;;;21.20;50.90;;;;;;5075709;28;20193;-76
2022/04/15 11:43:56;;;;;;;10.68;9.57;;;21.90;46.40;;;;;;5075612;28;20334;-75
2022/04/15 11:46:25;;;;;;;10.68;9.18;;;22.50;44.40;;;;;;5075536;28;20288;-76
2022/04/15 11:48:54;;;;;;;8.27;7.50;;;23.20;41.50;;;;;;5075502;28;20656;-75
2022/04/15 11:51:23;;;;;;;9.13;8.25;;;23.20;40.20;;;;;;5075436;28;20695;-74
2022/04/15 11:53:50;;;;;;;10.95;9.65;;;23.50;38.80;;;;;;5075502;28;20232;-75
2022/04/15 11:56:17;;;;;;;9.45;8.63;;;23.20;39.70;;;;;;5075534;28;20201;-74
2022/04/15 11:58:44;;;;;;;9.20;8.30;;;24.50;38.90;;;;;;5075249;28;20197;-74
2022/04/15 12:01:11;;;;;;;7.50;6.80;;;24.30;36.30;;;;;;5075572;28;20284;-75
2022/04/15 12:03:43;;;;;;;7.85;7.05;;;23.80;34.90;;;;;;5075452;28;20203;-75
2022/04/15 12:06:10;;;;;;;9.38;7.50;;;24.00;33.50;;;;;;5075367;28;20201;-75
2022/04/15 12:08:36;;;;;;;9.65;8.65;;;24.40;34.60;;;;;;5075203;28;20335;-75
2022/04/15 12:11:03;;;;;;;9.75;8.77;;;24.20;33.20;;;;;;5075046;28;20217;-75
2022/04/15 12:13:30;;;;;;;9.00;8.10;;;23.30;34.90;;;;;;5075100;28;20208;-76
2022/04/15 12:15:57;;;;;;;8.70;7.85;;;21.10;36.70;;;;;;5075307;28;20342;-75
2022/04/15 12:18:24;;;;;;;9.32;8.50;;;21.30;37.00;;;;;;5075150;28;20599;-75
2022/04/15 12:20:52;;;;;;;9.18;8.27;;;21.70;37.00;;;;;;5075189;28;20602;-75
2022/04/15 12:23:18;;;;;;;8.10;7.30;;;22.70;36.60;;;;;;5075125;28;20229;-74
2022/04/15 12:26:09;;;;;;;9.02;7.75;;;23.80;35.80;;;;;;5074974;28;20193;-76
2022/04/15 12:31:26;;;;;;;8.10;7.35;;;25.50;31.20;;;;;;5074811;28;20232;-75
2022/04/15 12:33:53;;;;;;;7.22;6.60;;;24.60;30.20;;;;;;5074708;28;20204;-75
2022/04/15 12:36:21;;;;;;;6.05;5.30;;;25.30;30.10;;;;;;5074788;28;20205;-75
2022/04/15 12:38:58;;;;;;;5.75;5.18;;;24.20;29.40;;;;;;5074938;28;20251;-75
2022/04/15 12:41:25;;;;;;;6.72;5.85;;;22.80;30.60;;;;;;5074486;28;20572;-75
2022/04/15 12:44:14;;;;;;;5.55;5.00;;;22.50;30.70;;;;;;5074454;28;20246;-75
2022/04/15 12:46:43;;;;;;;6.45;4.40;;;23.90;30.00;;;;;;5074370;28;20205;-75